sensor_id;sensor_type;location;lat;lon;timestamp;P1;durP1;ratioP1;P2;durP2;ratioP2
4726;SDS011;2377;51.734;8.950;2022-09-21T00:01:23;2.30;;;1.20;;
4726;SDS011;2377;51.734;8.950;2022-09-21T00:03:53;6.03;;;1.53;;
4726;SDS011;2377;51.734;8.950;2022-09-21T00:06:23;2.50;;;1.43;;
4726;SDS011;2377;51.734;8.950;2022-09-21T00:08:52;2.20;;;1.33;;
4726;SDS011;2377;51.734;8.950;2022-09-21T00:11:21;3.63;;;1.60;;
4726;SDS011;2377;51.734;8.950;2022-09-21T00:13:52;3.13;;;1.63;;
4726;SDS011;2377;51.734;8.950;2022-09-21T00:16:23;4.90;;;2.10;;
4726;SDS011;2377;51.734;8.950;2022-09-21T00:18:50;4.27;;;1.60;;
4726;SDS011;2377;51.734;8.950;2022-09-21T00:21:18;4.73;;;1.50;;
4726;SDS011;2377;51.734;8.950;2022-09-21T00:23:45;2.50;;;1.40;;
4726;SDS011;2377;51.734;8.950;2022-09-21T00:26:14;3.20;;;1.53;;
4726;SDS011;2377;51.734;8.950;2022-09-21T00:28:43;3.33;;;1.47;;
4726;SDS011;2377;51.734;8.950;2022-09-21T00:31:13;2.87;;;1.33;;
4726;SDS011;2377;51.734;8.950;2022-09-21T00:33:43;2.73;;;1.40;;
4726;SDS011;2377;51.734;8.950;2022-09-21T00:36:11;3.47;;;1.40;;
4726;SDS011;2377;51.734;8.950;2022-09-21T00:38:40;2.73;;;1.50;;
4726;SDS011;2377;51.734;8.950;2022-09-21T00:41:08;10.13;;;1.70;;
4726;SDS011;2377;51.734;8.950;2022-09-21T00:43:39;3.07;;;1.33;;
4726;SDS011;2377;51.734;8.950;2022-09-21T00:46:12;9.10;;;1.50;;
4726;SDS011;2377;51.734;8.950;2022-09-21T00:48:52;4.40;;;1.87;;
4726;SDS011;2377;51.734;8.950;2022-09-21T00:51:19;4.70;;;2.53;;
4726;SDS011;2377;51.734;8.950;2022-09-21T00:53:47;2.10;;;1.30;;
4726;SDS011;2377;51.734;8.950;2022-09-21T00:56:24;4.67;;;1.80;;
4726;SDS011;2377;51.734;8.950;2022-09-21T00:58:52;4.00;;;1.57;;
4726;SDS011;2377;51.734;8.950;2022-09-21T01:01:20;2.60;;;1.57;;
4726;SDS011;2377;51.734;8.950;2022-09-21T01:03:49;2.87;;;1.40;;
4726;SDS011;2377;51.734;8.950;2022-09-21T01:06:21;3.83;;;1.27;;
4726;SDS011;2377;51.734;8.950;2022-09-21T01:08:50;3.73;;;1.40;;
4726;SDS011;2377;51.734;8.950;2022-09-21T01:11:25;3.93;;;1.53;;
4726;SDS011;2377;51.734;8.950;2022-09-21T01:14:08;3.57;;;1.70;;
4726;SDS011;2377;51.734;8.950;2022-09-21T01:16:50;4.47;;;1.70;;
4726;SDS011;2377;51.734;8.950;2022-09-21T01:19:37;3.60;;;1.70;;
4726;SDS011;2377;51.734;8.950;2022-09-21T01:22:42;2.13;;;1.30;;
4726;SDS011;2377;51.734;8.950;2022-09-21T01:25:29;3.03;;;1.43;;
4726;SDS011;2377;51.734;8.950;2022-09-21T01:28:10;3.83;;;1.50;;
4726;SDS011;2377;51.734;8.950;2022-09-21T01:30:54;3.30;;;1.50;;
4726;SDS011;2377;51.734;8.950;2022-09-21T01:33:31;2.30;;;1.40;;
4726;SDS011;2377;51.734;8.950;2022-09-21T01:36:04;2.43;;;1.43;;
4726;SDS011;2377;51.734;8.950;2022-09-21T01:38:39;2.50;;;1.37;;
4726;SDS011;2377;51.734;8.950;2022-09-21T01:41:14;3.90;;;1.60;;
4726;SDS011;2377;51.734;8.950;2022-09-21T01:43:48;3.17;;;1.40;;
4726;SDS011;2377;51.734;8.950;2022-09-21T01:46:24;1.70;;;1.10;;
4726;SDS011;2377;51.734;8.950;2022-09-21T01:48:57;1.73;;;1.00;;
4726;SDS011;2377;51.734;8.950;2022-09-21T01:51:31;2.57;;;1.60;;
4726;SDS011;2377;51.734;8.950;2022-09-21T01:54:03;2.20;;;1.40;;
4726;SDS011;2377;51.734;8.950;2022-09-21T01:56:38;2.37;;;1.30;;
4726;SDS011;2377;51.734;8.950;2022-09-21T01:59:16;4.30;;;1.63;;
4726;SDS011;2377;51.734;8.950;2022-09-21T02:01:51;3.53;;;1.60;;
4726;SDS011;2377;51.734;8.950;2022-09-21T02:04:22;3.20;;;1.60;;
4726;SDS011;2377;51.734;8.950;2022-09-21T02:06:51;3.83;;;1.80;;
4726;SDS011;2377;51.734;8.950;2022-09-21T02:09:19;4.17;;;1.63;;
4726;SDS011;2377;51.734;8.950;2022-09-21T02:11:48;3.43;;;1.33;;
4726;SDS011;2377;51.734;8.950;2022-09-21T02:14:16;2.40;;;1.50;;
4726;SDS011;2377;51.734;8.950;2022-09-21T02:16:49;2.77;;;1.40;;
4726;SDS011;2377;51.734;8.950;2022-09-21T02:19:33;3.00;;;1.50;;
4726;SDS011;2377;51.734;8.950;2022-09-21T02:22:12;2.20;;;1.40;;
4726;SDS011;2377;51.734;8.950;2022-09-21T02:24:54;4.73;;;1.70;;
4726;SDS011;2377;51.734;8.950;2022-09-21T02:27:33;8.50;;;2.40;;
4726;SDS011;2377;51.734;8.950;2022-09-21T02:30:12;3.57;;;2.03;;
4726;SDS011;2377;51.734;8.950;2022-09-21T02:32:46;3.70;;;2.30;;
4726;SDS011;2377;51.734;8.950;2022-09-21T02:35:25;3.53;;;2.47;;
4726;SDS011;2377;51.734;8.950;2022-09-21T02:38:06;3.80;;;2.40;;
4726;SDS011;2377;51.734;8.950;2022-09-21T02:40:39;3.50;;;1.80;;
4726;SDS011;2377;51.734;8.950;2022-09-21T02:43:17;2.50;;;1.60;;
4726;SDS011;2377;51.734;8.950;2022-09-21T02:45:54;2.80;;;1.80;;
4726;SDS011;2377;51.734;8.950;2022-09-21T02:48:31;2.93;;;1.90;;
4726;SDS011;2377;51.734;8.950;2022-09-21T02:51:05;2.70;;;1.97;;
4726;SDS011;2377;51.734;8.950;2022-09-21T02:53:37;2.50;;;1.50;;
4726;SDS011;2377;51.734;8.950;2022-09-21T02:56:07;3.93;;;1.90;;
4726;SDS011;2377;51.734;8.950;2022-09-21T02:58:40;3.93;;;2.40;;
4726;SDS011;2377;51.734;8.950;2022-09-21T03:01:16;3.50;;;2.53;;
4726;SDS011;2377;51.734;8.950;2022-09-21T03:03:47;4.20;;;2.83;;
4726;SDS011;2377;51.734;8.950;2022-09-21T03:06:15;3.20;;;1.83;;
4726;SDS011;2377;51.734;8.950;2022-09-21T03:08:42;3.60;;;2.30;;
4726;SDS011;2377;51.734;8.950;2022-09-21T03:11:14;4.40;;;2.93;;
4726;SDS011;2377;51.734;8.950;2022-09-21T03:13:42;3.70;;;2.27;;
4726;SDS011;2377;51.734;8.950;2022-09-21T03:16:10;3.47;;;2.50;;
4726;SDS011;2377;51.734;8.950;2022-09-21T03:18:38;6.30;;;2.90;;
4726;SDS011;2377;51.734;8.950;2022-09-21T03:21:08;3.90;;;2.20;;
4726;SDS011;2377;51.734;8.950;2022-09-21T03:23:36;2.67;;;1.80;;
4726;SDS011;2377;51.734;8.950;2022-09-21T03:26:03;3.10;;;2.20;;
4726;SDS011;2377;51.734;8.950;2022-09-21T03:28:30;3.10;;;1.70;;
4726;SDS011;2377;51.734;8.950;2022-09-21T03:30:57;2.83;;;1.97;;
4726;SDS011;2377;51.734;8.950;2022-09-21T03:33:25;3.57;;;2.40;;
4726;SDS011;2377;51.734;8.950;2022-09-21T03:35:52;3.13;;;2.20;;
4726;SDS011;2377;51.734;8.950;2022-09-21T03:38:21;3.57;;;2.53;;
4726;SDS011;2377;51.734;8.950;2022-09-21T03:40:49;3.60;;;2.40;;
4726;SDS011;2377;51.734;8.950;2022-09-21T03:43:16;4.80;;;2.80;;
4726;SDS011;2377;51.734;8.950;2022-09-21T03:45:44;4.20;;;2.73;;
4726;SDS011;2377;51.734;8.950;2022-09-21T03:48:13;4.00;;;3.00;;
4726;SDS011;2377;51.734;8.950;2022-09-21T03:50:41;3.10;;;2.40;;
4726;SDS011;2377;51.734;8.950;2022-09-21T03:53:08;3.60;;;2.40;;
4726;SDS011;2377;51.734;8.950;2022-09-21T03:55:38;5.60;;;2.93;;
4726;SDS011;2377;51.734;8.950;2022-09-21T03:58:05;6.33;;;2.60;;
4726;SDS011;2377;51.734;8.950;2022-09-21T04:00:33;3.93;;;2.80;;
4726;SDS011;2377;51.734;8.950;2022-09-21T04:03:02;4.33;;;3.00;;
4726;SDS011;2377;51.734;8.950;2022-09-21T04:05:29;6.43;;;3.53;;
4726;SDS011;2377;51.734;8.950;2022-09-21T04:07:57;5.40;;;3.97;;
4726;SDS011;2377;51.734;8.950;2022-09-21T04:10:26;7.80;;;3.30;;
4726;SDS011;2377;51.734;8.950;2022-09-21T04:12:59;4.47;;;3.30;;
4726;SDS011;2377;51.734;8.950;2022-09-21T04:15:28;5.13;;;3.50;;
4726;SDS011;2377;51.734;8.950;2022-09-21T04:17:56;4.80;;;3.20;;
4726;SDS011;2377;51.734;8.950;2022-09-21T04:20:23;4.43;;;2.90;;
4726;SDS011;2377;51.734;8.950;2022-09-21T04:22:50;5.70;;;3.17;;
4726;SDS011;2377;51.734;8.950;2022-09-21T04:25:17;5.10;;;3.53;;
4726;SDS011;2377;51.734;8.950;2022-09-21T04:27:45;7.00;;;3.70;;
4726;SDS011;2377;51.734;8.950;2022-09-21T04:30:14;8.80;;;4.30;;
4726;SDS011;2377;51.734;8.950;2022-09-21T04:32:42;6.30;;;4.43;;
4726;SDS011;2377;51.734;8.950;2022-09-21T04:35:10;8.00;;;4.17;;
4726;SDS011;2377;51.734;8.950;2022-09-21T04:37:37;5.53;;;3.67;;
4726;SDS011;2377;51.734;8.950;2022-09-21T04:40:05;6.67;;;4.37;;
4726;SDS011;2377;51.734;8.950;2022-09-21T04:42:33;5.40;;;3.37;;
4726;SDS011;2377;51.734;8.950;2022-09-21T04:45:00;4.73;;;3.33;;
4726;SDS011;2377;51.734;8.950;2022-09-21T04:47:30;8.33;;;3.67;;
4726;SDS011;2377;51.734;8.950;2022-09-21T04:49:57;6.07;;;3.77;;
4726;SDS011;2377;51.734;8.950;2022-09-21T04:52:24;5.60;;;3.97;;
4726;SDS011;2377;51.734;8.950;2022-09-21T04:54:51;7.50;;;4.00;;
4726;SDS011;2377;51.734;8.950;2022-09-21T04:57:18;5.47;;;3.80;;
4726;SDS011;2377;51.734;8.950;2022-09-21T04:59:46;4.50;;;3.43;;
4726;SDS011;2377;51.734;8.950;2022-09-21T05:02:13;4.53;;;3.50;;
4726;SDS011;2377;51.734;8.950;2022-09-21T05:04:41;4.57;;;3.53;;
4726;SDS011;2377;51.734;8.950;2022-09-21T05:07:08;5.27;;;3.60;;
4726;SDS011;2377;51.734;8.950;2022-09-21T05:09:35;5.00;;;3.33;;
4726;SDS011;2377;51.734;8.950;2022-09-21T05:12:20;5.70;;;4.10;;
4726;SDS011;2377;51.734;8.950;2022-09-21T05:14:47;6.10;;;4.60;;
4726;SDS011;2377;51.734;8.950;2022-09-21T05:17:14;6.67;;;4.33;;
4726;SDS011;2377;51.734;8.950;2022-09-21T05:19:42;5.83;;;4.40;;
4726;SDS011;2377;51.734;8.950;2022-09-21T05:22:09;5.60;;;4.20;;
4726;SDS011;2377;51.734;8.950;2022-09-21T05:24:37;6.07;;;4.17;;
4726;SDS011;2377;51.734;8.950;2022-09-21T05:27:04;5.87;;;4.23;;
4726;SDS011;2377;51.734;8.950;2022-09-21T05:29:31;9.40;;;4.53;;
4726;SDS011;2377;51.734;8.950;2022-09-21T05:32:02;6.43;;;3.83;;
4726;SDS011;2377;51.734;8.950;2022-09-21T05:34:47;6.90;;;3.90;;
4726;SDS011;2377;51.734;8.950;2022-09-21T05:37:33;4.50;;;3.10;;
4726;SDS011;2377;51.734;8.950;2022-09-21T05:40:19;4.47;;;2.83;;
4726;SDS011;2377;51.734;8.950;2022-09-21T05:42:47;6.30;;;2.70;;
4726;SDS011;2377;51.734;8.950;2022-09-21T05:45:15;4.90;;;3.23;;
4726;SDS011;2377;51.734;8.950;2022-09-21T05:47:48;4.40;;;2.90;;
4726;SDS011;2377;51.734;8.950;2022-09-21T05:53:39;3.50;;;2.10;;
4726;SDS011;2377;51.734;8.950;2022-09-21T05:56:27;6.10;;;2.27;;
4726;SDS011;2377;51.734;8.950;2022-09-21T05:59:15;4.03;;;1.90;;
4726;SDS011;2377;51.734;8.950;2022-09-21T06:02:11;10.00;;;3.67;;
4726;SDS011;2377;51.734;8.950;2022-09-21T06:04:52;5.17;;;2.50;;
4726;SDS011;2377;51.734;8.950;2022-09-21T06:07:26;5.77;;;3.07;;
4726;SDS011;2377;51.734;8.950;2022-09-21T06:09:53;6.40;;;4.10;;
4726;SDS011;2377;51.734;8.950;2022-09-21T06:12:21;14.20;;;5.40;;
4726;SDS011;2377;51.734;8.950;2022-09-21T06:14:48;7.50;;;4.70;;
4726;SDS011;2377;51.734;8.950;2022-09-21T06:17:15;9.27;;;4.83;;
4726;SDS011;2377;51.734;8.950;2022-09-21T06:19:42;7.70;;;5.03;;
4726;SDS011;2377;51.734;8.950;2022-09-21T06:22:09;7.30;;;4.50;;
4726;SDS011;2377;51.734;8.950;2022-09-21T06:24:38;9.50;;;4.17;;
4726;SDS011;2377;51.734;8.950;2022-09-21T06:27:05;10.10;;;4.80;;
4726;SDS011;2377;51.734;8.950;2022-09-21T06:29:32;8.37;;;4.20;;
4726;SDS011;2377;51.734;8.950;2022-09-21T06:32:00;6.80;;;4.50;;
4726;SDS011;2377;51.734;8.950;2022-09-21T06:34:27;6.67;;;4.30;;
4726;SDS011;2377;51.734;8.950;2022-09-21T06:36:55;5.00;;;2.80;;
4726;SDS011;2377;51.734;8.950;2022-09-21T06:39:22;4.77;;;2.20;;
4726;SDS011;2377;51.734;8.950;2022-09-21T06:41:51;3.70;;;1.77;;
4726;SDS011;2377;51.734;8.950;2022-09-21T06:44:19;5.47;;;1.63;;
4726;SDS011;2377;51.734;8.950;2022-09-21T06:46:46;4.63;;;1.80;;
4726;SDS011;2377;51.734;8.950;2022-09-21T06:49:13;6.63;;;1.80;;
4726;SDS011;2377;51.734;8.950;2022-09-21T06:51:40;3.50;;;1.70;;
4726;SDS011;2377;51.734;8.950;2022-09-21T06:54:08;3.40;;;1.73;;
4726;SDS011;2377;51.734;8.950;2022-09-21T06:56:35;4.40;;;2.00;;
4726;SDS011;2377;51.734;8.950;2022-09-21T06:59:04;5.90;;;2.30;;
4726;SDS011;2377;51.734;8.950;2022-09-21T07:01:32;4.70;;;3.07;;
4726;SDS011;2377;51.734;8.950;2022-09-21T07:03:59;5.20;;;3.40;;
4726;SDS011;2377;51.734;8.950;2022-09-21T07:06:27;6.30;;;2.73;;
4726;SDS011;2377;51.734;8.950;2022-09-21T07:08:54;5.10;;;2.70;;
4726;SDS011;2377;51.734;8.950;2022-09-21T07:11:22;7.23;;;3.07;;
4726;SDS011;2377;51.734;8.950;2022-09-21T07:13:51;6.20;;;3.47;;
4726;SDS011;2377;51.734;8.950;2022-09-21T07:16:20;9.17;;;3.70;;
4726;SDS011;2377;51.734;8.950;2022-09-21T07:18:47;5.50;;;3.40;;
4726;SDS011;2377;51.734;8.950;2022-09-21T07:21:14;4.83;;;3.80;;
4726;SDS011;2377;51.734;8.950;2022-09-21T07:23:42;12.90;;;5.27;;
4726;SDS011;2377;51.734;8.950;2022-09-21T07:26:09;6.70;;;4.50;;
4726;SDS011;2377;51.734;8.950;2022-09-21T07:28:38;8.93;;;5.03;;
4726;SDS011;2377;51.734;8.950;2022-09-21T07:31:06;9.33;;;5.20;;
4726;SDS011;2377;51.734;8.950;2022-09-21T07:33:36;8.63;;;5.10;;
4726;SDS011;2377;51.734;8.950;2022-09-21T07:36:04;9.43;;;5.60;;
4726;SDS011;2377;51.734;8.950;2022-09-21T07:38:34;13.83;;;6.50;;
4726;SDS011;2377;51.734;8.950;2022-09-21T07:41:03;10.60;;;6.40;;
4726;SDS011;2377;51.734;8.950;2022-09-21T07:43:31;13.60;;;7.60;;
4726;SDS011;2377;51.734;8.950;2022-09-21T07:45:59;14.43;;;8.00;;
4726;SDS011;2377;51.734;8.950;2022-09-21T07:48:27;9.80;;;6.40;;
4726;SDS011;2377;51.734;8.950;2022-09-21T07:50:58;11.03;;;7.20;;
4726;SDS011;2377;51.734;8.950;2022-09-21T07:53:30;10.73;;;7.30;;
4726;SDS011;2377;51.734;8.950;2022-09-21T07:56:01;12.60;;;7.00;;
4726;SDS011;2377;51.734;8.950;2022-09-21T07:58:29;9.43;;;6.43;;
4726;SDS011;2377;51.734;8.950;2022-09-21T08:01:14;10.10;;;6.57;;
4726;SDS011;2377;51.734;8.950;2022-09-21T08:03:41;13.10;;;7.30;;
4726;SDS011;2377;51.734;8.950;2022-09-21T08:06:10;13.47;;;8.00;;
4726;SDS011;2377;51.734;8.950;2022-09-21T08:08:37;17.13;;;8.43;;
4726;SDS011;2377;51.734;8.950;2022-09-21T08:11:06;11.40;;;7.27;;
4726;SDS011;2377;51.734;8.950;2022-09-21T08:13:36;10.43;;;6.80;;
4726;SDS011;2377;51.734;8.950;2022-09-21T08:16:03;11.13;;;7.13;;
4726;SDS011;2377;51.734;8.950;2022-09-21T08:18:30;12.83;;;9.30;;
4726;SDS011;2377;51.734;8.950;2022-09-21T08:21:02;10.93;;;7.40;;
4726;SDS011;2377;51.734;8.950;2022-09-21T08:23:30;14.17;;;7.03;;
4726;SDS011;2377;51.734;8.950;2022-09-21T08:25:58;13.80;;;7.13;;
4726;SDS011;2377;51.734;8.950;2022-09-21T08:28:26;12.60;;;6.00;;
4726;SDS011;2377;51.734;8.950;2022-09-21T08:30:53;11.73;;;6.40;;
4726;SDS011;2377;51.734;8.950;2022-09-21T08:33:24;10.10;;;5.70;;
4726;SDS011;2377;51.734;8.950;2022-09-21T08:35:52;13.07;;;5.70;;
4726;SDS011;2377;51.734;8.950;2022-09-21T08:38:20;9.57;;;4.77;;
4726;SDS011;2377;51.734;8.950;2022-09-21T08:40:49;8.93;;;4.93;;
4726;SDS011;2377;51.734;8.950;2022-09-21T08:43:21;9.37;;;4.63;;
4726;SDS011;2377;51.734;8.950;2022-09-21T08:45:58;11.67;;;4.70;;
4726;SDS011;2377;51.734;8.950;2022-09-21T08:48:31;10.80;;;5.03;;
4726;SDS011;2377;51.734;8.950;2022-09-21T08:51:05;10.50;;;4.30;;
4726;SDS011;2377;51.734;8.950;2022-09-21T08:53:38;13.50;;;5.80;;
4726;SDS011;2377;51.734;8.950;2022-09-21T08:56:11;9.70;;;4.00;;
4726;SDS011;2377;51.734;8.950;2022-09-21T08:58:41;12.83;;;4.20;;
4726;SDS011;2377;51.734;8.950;2022-09-21T09:01:20;8.73;;;3.60;;
4726;SDS011;2377;51.734;8.950;2022-09-21T09:04:08;7.20;;;3.93;;
4726;SDS011;2377;51.734;8.950;2022-09-21T09:07:19;8.97;;;4.00;;
4726;SDS011;2377;51.734;8.950;2022-09-21T09:10:14;9.20;;;4.07;;
4726;SDS011;2377;51.734;8.950;2022-09-21T09:13:01;8.10;;;3.10;;
4726;SDS011;2377;51.734;8.950;2022-09-21T09:15:55;9.93;;;2.73;;
4726;SDS011;2377;51.734;8.950;2022-09-21T09:18:37;8.67;;;2.83;;
4726;SDS011;2377;51.734;8.950;2022-09-21T09:21:11;7.50;;;2.87;;
4726;SDS011;2377;51.734;8.950;2022-09-21T09:23:47;4.63;;;2.40;;
4726;SDS011;2377;51.734;8.950;2022-09-21T09:26:25;6.40;;;2.43;;
4726;SDS011;2377;51.734;8.950;2022-09-21T09:29:03;7.57;;;2.63;;
4726;SDS011;2377;51.734;8.950;2022-09-21T09:31:41;8.07;;;3.13;;
4726;SDS011;2377;51.734;8.950;2022-09-21T09:34:11;5.23;;;2.50;;
4726;SDS011;2377;51.734;8.950;2022-09-21T09:36:49;5.43;;;2.67;;
4726;SDS011;2377;51.734;8.950;2022-09-21T09:39:23;8.43;;;3.07;;
4726;SDS011;2377;51.734;8.950;2022-09-21T09:42:01;12.03;;;3.07;;
4726;SDS011;2377;51.734;8.950;2022-09-21T09:44:56;9.57;;;3.00;;
4726;SDS011;2377;51.734;8.950;2022-09-21T09:47:42;11.70;;;4.07;;
4726;SDS011;2377;51.734;8.950;2022-09-21T09:50:24;5.60;;;2.90;;
4726;SDS011;2377;51.734;8.950;2022-09-21T09:52:56;8.67;;;2.67;;
4726;SDS011;2377;51.734;8.950;2022-09-21T09:55:34;7.20;;;2.60;;
4726;SDS011;2377;51.734;8.950;2022-09-21T09:58:05;6.40;;;2.30;;
4726;SDS011;2377;51.734;8.950;2022-09-21T10:00:44;6.57;;;1.90;;
4726;SDS011;2377;51.734;8.950;2022-09-21T10:03:16;9.70;;;2.90;;
4726;SDS011;2377;51.734;8.950;2022-09-21T10:05:46;6.53;;;1.90;;
4726;SDS011;2377;51.734;8.950;2022-09-21T10:08:27;5.13;;;1.90;;
4726;SDS011;2377;51.734;8.950;2022-09-21T10:11:06;7.47;;;2.27;;
4726;SDS011;2377;51.734;8.950;2022-09-21T10:13:34;6.50;;;2.57;;
4726;SDS011;2377;51.734;8.950;2022-09-21T10:16:05;4.63;;;1.83;;
4726;SDS011;2377;51.734;8.950;2022-09-21T10:18:38;10.40;;;3.17;;
4726;SDS011;2377;51.734;8.950;2022-09-21T10:21:16;8.27;;;2.60;;
4726;SDS011;2377;51.734;8.950;2022-09-21T10:23:47;6.90;;;2.57;;
4726;SDS011;2377;51.734;8.950;2022-09-21T10:26:18;4.90;;;1.90;;
4726;SDS011;2377;51.734;8.950;2022-09-21T10:28:55;5.53;;;2.13;;
4726;SDS011;2377;51.734;8.950;2022-09-21T10:31:26;5.67;;;3.27;;
4726;SDS011;2377;51.734;8.950;2022-09-21T10:34:03;10.60;;;2.93;;
4726;SDS011;2377;51.734;8.950;2022-09-21T10:36:38;16.50;;;7.27;;
4726;SDS011;2377;51.734;8.950;2022-09-21T10:39:16;7.60;;;2.77;;
4726;SDS011;2377;51.734;8.950;2022-09-21T10:41:51;9.60;;;1.90;;
4726;SDS011;2377;51.734;8.950;2022-09-21T10:44:25;5.47;;;1.80;;
4726;SDS011;2377;51.734;8.950;2022-09-21T10:47:16;7.70;;;1.63;;
4726;SDS011;2377;51.734;8.950;2022-09-21T10:49:48;3.70;;;1.80;;
4726;SDS011;2377;51.734;8.950;2022-09-21T10:52:19;7.07;;;1.73;;
4726;SDS011;2377;51.734;8.950;2022-09-21T10:54:50;9.77;;;1.90;;
4726;SDS011;2377;51.734;8.950;2022-09-21T10:57:21;4.23;;;1.60;;
4726;SDS011;2377;51.734;8.950;2022-09-21T10:59:51;8.53;;;1.77;;
4726;SDS011;2377;51.734;8.950;2022-09-21T11:02:36;9.57;;;2.07;;
4726;SDS011;2377;51.734;8.950;2022-09-21T11:05:06;4.80;;;1.40;;
4726;SDS011;2377;51.734;8.950;2022-09-21T11:07:42;3.80;;;1.37;;
4726;SDS011;2377;51.734;8.950;2022-09-21T11:10:18;4.27;;;1.60;;
4726;SDS011;2377;51.734;8.950;2022-09-21T11:12:57;6.93;;;1.90;;
4726;SDS011;2377;51.734;8.950;2022-09-21T11:15:43;8.47;;;1.43;;
4726;SDS011;2377;51.734;8.950;2022-09-21T11:18:21;4.50;;;1.73;;
4726;SDS011;2377;51.734;8.950;2022-09-21T11:21:03;4.37;;;1.40;;
4726;SDS011;2377;51.734;8.950;2022-09-21T11:23:46;5.90;;;1.43;;
4726;SDS011;2377;51.734;8.950;2022-09-21T11:26:28;6.17;;;1.50;;
4726;SDS011;2377;51.734;8.950;2022-09-21T11:29:07;6.23;;;1.87;;
4726;SDS011;2377;51.734;8.950;2022-09-21T11:31:49;4.70;;;1.40;;
4726;SDS011;2377;51.734;8.950;2022-09-21T11:34:38;2.63;;;1.00;;
4726;SDS011;2377;51.734;8.950;2022-09-21T11:37:50;4.17;;;1.50;;
4726;SDS011;2377;51.734;8.950;2022-09-21T11:40:54;5.77;;;1.53;;
4726;SDS011;2377;51.734;8.950;2022-09-21T11:46:47;2.80;;;1.00;;
4726;SDS011;2377;51.734;8.950;2022-09-21T11:49:32;4.00;;;1.40;;
4726;SDS011;2377;51.734;8.950;2022-09-21T11:52:28;4.20;;;1.17;;
4726;SDS011;2377;51.734;8.950;2022-09-21T11:55:18;6.43;;;1.43;;
4726;SDS011;2377;51.734;8.950;2022-09-21T11:58:11;2.73;;;0.93;;
4726;SDS011;2377;51.734;8.950;2022-09-21T12:00:55;5.70;;;1.17;;
4726;SDS011;2377;51.734;8.950;2022-09-21T12:03:39;4.27;;;1.17;;
4726;SDS011;2377;51.734;8.950;2022-09-21T12:06:27;4.20;;;1.23;;
4726;SDS011;2377;51.734;8.950;2022-09-21T12:12:12;2.27;;;1.07;;
4726;SDS011;2377;51.734;8.950;2022-09-21T12:14:47;5.70;;;1.30;;
4726;SDS011;2377;51.734;8.950;2022-09-21T12:17:25;4.77;;;1.40;;
4726;SDS011;2377;51.734;8.950;2022-09-21T12:20:09;6.13;;;1.30;;
4726;SDS011;2377;51.734;8.950;2022-09-21T12:22:46;7.33;;;1.60;;
4726;SDS011;2377;51.734;8.950;2022-09-21T12:25:18;4.03;;;1.20;;
4726;SDS011;2377;51.734;8.950;2022-09-21T12:27:51;6.43;;;1.37;;
4726;SDS011;2377;51.734;8.950;2022-09-21T12:30:26;4.73;;;1.40;;
4726;SDS011;2377;51.734;8.950;2022-09-21T12:32:57;5.10;;;1.10;;
4726;SDS011;2377;51.734;8.950;2022-09-21T12:35:33;3.50;;;1.20;;
4726;SDS011;2377;51.734;8.950;2022-09-21T12:38:08;3.20;;;1.00;;
4726;SDS011;2377;51.734;8.950;2022-09-21T12:40:42;3.90;;;1.30;;
4726;SDS011;2377;51.734;8.950;2022-09-21T12:43:20;3.37;;;1.10;;
4726;SDS011;2377;51.734;8.950;2022-09-21T12:46:01;4.57;;;1.23;;
4726;SDS011;2377;51.734;8.950;2022-09-21T12:48:35;3.20;;;1.00;;
4726;SDS011;2377;51.734;8.950;2022-09-21T12:51:09;3.40;;;1.13;;
4726;SDS011;2377;51.734;8.950;2022-09-21T12:53:43;5.77;;;1.30;;
4726;SDS011;2377;51.734;8.950;2022-09-21T12:56:14;8.83;;;1.77;;
4726;SDS011;2377;51.734;8.950;2022-09-21T12:59:04;4.37;;;1.50;;
4726;SDS011;2377;51.734;8.950;2022-09-21T13:01:47;3.93;;;1.10;;
4726;SDS011;2377;51.734;8.950;2022-09-21T13:04:31;4.63;;;1.17;;
4726;SDS011;2377;51.734;8.950;2022-09-21T13:10:36;4.93;;;1.10;;
4726;SDS011;2377;51.734;8.950;2022-09-21T13:13:20;3.70;;;0.90;;
4726;SDS011;2377;51.734;8.950;2022-09-21T13:15:53;2.37;;;0.90;;
4726;SDS011;2377;51.734;8.950;2022-09-21T13:18:23;3.23;;;1.13;;
4726;SDS011;2377;51.734;8.950;2022-09-21T13:20:56;7.60;;;1.40;;
4726;SDS011;2377;51.734;8.950;2022-09-21T13:23:26;4.53;;;1.27;;
4726;SDS011;2377;51.734;8.950;2022-09-21T13:26:06;4.33;;;1.20;;
4726;SDS011;2377;51.734;8.950;2022-09-21T13:28:39;4.33;;;1.10;;
4726;SDS011;2377;51.734;8.950;2022-09-21T13:31:52;4.17;;;1.27;;
4726;SDS011;2377;51.734;8.950;2022-09-21T13:34:25;2.70;;;0.97;;
4726;SDS011;2377;51.734;8.950;2022-09-21T13:37:22;3.80;;;1.03;;
4726;SDS011;2377;51.734;8.950;2022-09-21T13:43:17;4.00;;;1.30;;
4726;SDS011;2377;51.734;8.950;2022-09-21T13:45:49;3.07;;;1.27;;
4726;SDS011;2377;51.734;8.950;2022-09-21T13:48:25;6.00;;;1.13;;
4726;SDS011;2377;51.734;8.950;2022-09-21T13:51:00;3.43;;;1.37;;
4726;SDS011;2377;51.734;8.950;2022-09-21T13:53:35;5.03;;;1.33;;
4726;SDS011;2377;51.734;8.950;2022-09-21T13:56:07;4.20;;;1.33;;
4726;SDS011;2377;51.734;8.950;2022-09-21T13:58:47;2.70;;;1.00;;
4726;SDS011;2377;51.734;8.950;2022-09-21T14:01:20;3.27;;;1.20;;
4726;SDS011;2377;51.734;8.950;2022-09-21T14:03:51;5.70;;;1.20;;
4726;SDS011;2377;51.734;8.950;2022-09-21T14:06:24;3.60;;;1.37;;
4726;SDS011;2377;51.734;8.950;2022-09-21T14:08:59;5.40;;;1.30;;
4726;SDS011;2377;51.734;8.950;2022-09-21T14:11:30;5.40;;;1.17;;
4726;SDS011;2377;51.734;8.950;2022-09-21T14:14:06;3.40;;;1.10;;
4726;SDS011;2377;51.734;8.950;2022-09-21T14:16:55;3.83;;;1.20;;
4726;SDS011;2377;51.734;8.950;2022-09-21T14:22:35;3.07;;;1.17;;
4726;SDS011;2377;51.734;8.950;2022-09-21T14:25:24;3.93;;;1.17;;
4726;SDS011;2377;51.734;8.950;2022-09-21T14:27:59;3.20;;;1.23;;
4726;SDS011;2377;51.734;8.950;2022-09-21T14:30:37;2.83;;;1.20;;
4726;SDS011;2377;51.734;8.950;2022-09-21T14:33:19;4.30;;;1.20;;
4726;SDS011;2377;51.734;8.950;2022-09-21T14:35:54;3.67;;;1.60;;
4726;SDS011;2377;51.734;8.950;2022-09-21T14:38:27;3.87;;;1.47;;
4726;SDS011;2377;51.734;8.950;2022-09-21T14:41:00;3.57;;;1.37;;
4726;SDS011;2377;51.734;8.950;2022-09-21T14:43:33;4.63;;;1.60;;
4726;SDS011;2377;51.734;8.950;2022-09-21T14:49:19;2.70;;;1.10;;
4726;SDS011;2377;51.734;8.950;2022-09-21T14:52:06;6.37;;;1.20;;
4726;SDS011;2377;51.734;8.950;2022-09-21T14:54:47;2.67;;;0.90;;
4726;SDS011;2377;51.734;8.950;2022-09-21T14:57:33;3.80;;;1.00;;
4726;SDS011;2377;51.734;8.950;2022-09-21T15:00:16;4.27;;;1.40;;
4726;SDS011;2377;51.734;8.950;2022-09-21T15:03:01;2.90;;;1.20;;
4726;SDS011;2377;51.734;8.950;2022-09-21T15:05:52;4.77;;;1.30;;
4726;SDS011;2377;51.734;8.950;2022-09-21T15:08:41;3.87;;;1.13;;
4726;SDS011;2377;51.734;8.950;2022-09-21T15:11:38;4.03;;;1.37;;
4726;SDS011;2377;51.734;8.950;2022-09-21T15:14:17;2.40;;;1.00;;
4726;SDS011;2377;51.734;8.950;2022-09-21T15:16:58;2.63;;;1.07;;
4726;SDS011;2377;51.734;8.950;2022-09-21T15:19:34;2.67;;;1.23;;
4726;SDS011;2377;51.734;8.950;2022-09-21T15:22:10;3.70;;;1.10;;
4726;SDS011;2377;51.734;8.950;2022-09-21T15:24:47;4.73;;;1.23;;
4726;SDS011;2377;51.734;8.950;2022-09-21T15:27:17;4.93;;;1.30;;
4726;SDS011;2377;51.734;8.950;2022-09-21T15:29:48;6.27;;;1.30;;
4726;SDS011;2377;51.734;8.950;2022-09-21T15:32:23;5.93;;;1.20;;
4726;SDS011;2377;51.734;8.950;2022-09-21T15:35:03;4.27;;;1.40;;
4726;SDS011;2377;51.734;8.950;2022-09-21T15:37:43;4.80;;;1.07;;
4726;SDS011;2377;51.734;8.950;2022-09-21T15:40:15;2.40;;;1.00;;
4726;SDS011;2377;51.734;8.950;2022-09-21T15:42:58;4.33;;;1.30;;
4726;SDS011;2377;51.734;8.950;2022-09-21T15:45:30;3.43;;;1.00;;
4726;SDS011;2377;51.734;8.950;2022-09-21T15:48:10;4.27;;;1.20;;
4726;SDS011;2377;51.734;8.950;2022-09-21T15:50:39;4.77;;;1.40;;
4726;SDS011;2377;51.734;8.950;2022-09-21T15:53:13;4.10;;;1.37;;
4726;SDS011;2377;51.734;8.950;2022-09-21T15:55:47;3.40;;;1.10;;
4726;SDS011;2377;51.734;8.950;2022-09-21T15:58:18;2.60;;;1.10;;
4726;SDS011;2377;51.734;8.950;2022-09-21T16:01:01;3.43;;;1.10;;
4726;SDS011;2377;51.734;8.950;2022-09-21T16:03:35;3.50;;;1.17;;
4726;SDS011;2377;51.734;8.950;2022-09-21T16:06:18;3.20;;;1.10;;
4726;SDS011;2377;51.734;8.950;2022-09-21T16:08:51;4.07;;;1.13;;
4726;SDS011;2377;51.734;8.950;2022-09-21T16:11:30;2.87;;;1.00;;
4726;SDS011;2377;51.734;8.950;2022-09-21T16:14:03;3.13;;;0.90;;
4726;SDS011;2377;51.734;8.950;2022-09-21T16:22:49;2.13;;;0.80;;
4726;SDS011;2377;51.734;8.950;2022-09-21T16:25:26;5.07;;;1.23;;
4726;SDS011;2377;51.734;8.950;2022-09-21T16:28:02;2.33;;;0.90;;